Wanatah, Indiana
Current Conditions -  °F | °C
As of 3:07 AM on Friday 24 Oct 2014 (Local Time) from KVPZ Reporting Station
Overcast Overcast  
Wind Chill: 11°   Ceiling: 2800
Heat Index: 11°   Visibility: 10mi
Dew Point:   Wind: 5mph
Humidity: 74%   Direction: 220°SW
Pressure: 30.07"   Gusts: NA
Location:  41.43°N, 86.9°W
Report Text: KVPZ 240807Z AUTO 22004KT 10SM BKN028 OVC037 11/06 A3007 RMK AO2 T01060061 TSNO
Loading
Personal Weather Stations






























Interactive Weather Map
Tropical Storm Tracking
New forecast layout! Learn more

10-Day Weather Forecast

Advertisements
Track Severe Weather on mobile